createdAt,value
2022-12-27T00:00:42.606Z,73.40
2022-12-27T00:03:10.371Z,72.60
2022-12-27T00:05:38.110Z,72.60
2022-12-27T00:08:07.152Z,72.60
2022-12-27T00:10:34.931Z,72.60
2022-12-27T00:13:02.701Z,72.50
2022-12-27T00:15:30.520Z,72.50
2022-12-27T00:17:59.291Z,72.50
2022-12-27T00:20:27.143Z,72.50
2022-12-27T00:22:54.869Z,73.30
2022-12-27T00:25:23.940Z,72.50
2022-12-27T00:27:52.028Z,72.50
2022-12-27T00:30:19.873Z,72.30
2022-12-27T00:32:47.603Z,72.30
2022-12-27T00:35:15.335Z,72.40
2022-12-27T00:37:43.070Z,72.40
2022-12-27T00:40:12.164Z,72.40
2022-12-27T00:42:41.195Z,72.40
2022-12-27T00:45:10.178Z,72.40
2022-12-27T00:47:37.870Z,72.40
2022-12-27T00:50:06.058Z,72.20
2022-12-27T00:52:33.787Z,72.40
2022-12-27T00:55:01.531Z,72.30
2022-12-27T00:57:29.249Z,72.40
2022-12-27T00:59:58.262Z,72.30
2022-12-27T01:02:26.037Z,72.20
2022-12-27T01:04:54.927Z,72.30
2022-12-27T01:07:22.677Z,72.10
2022-12-27T01:09:50.600Z,72.30
2022-12-27T01:12:18.625Z,72.30
2022-12-27T01:14:46.469Z,72.30
2022-12-27T01:17:15.681Z,72.30
2022-12-27T01:19:43.421Z,72.30
2022-12-27T01:22:11.177Z,72.20
2022-12-27T01:24:38.885Z,72.20
2022-12-27T01:27:06.605Z,72.30
2022-12-27T01:29:34.337Z,72.30
2022-12-27T01:32:02.101Z,72.30
2022-12-27T01:34:31.387Z,72.20
2022-12-27T01:36:59.158Z,72.20
2022-12-27T01:39:27.832Z,72.20
2022-12-27T01:42:12.941Z,72.20
2022-12-27T01:44:55.874Z,72.20
2022-12-27T01:47:31.309Z,72.20
2022-12-27T01:50:06.024Z,72.20
2022-12-27T01:52:40.771Z,72.10
2022-12-27T01:55:19.522Z,72.10
2022-12-27T01:57:48.748Z,72.10
2022-12-27T02:00:16.912Z,72.00
2022-12-27T02:02:44.984Z,72.00
2022-12-27T02:05:16.063Z,72.00
2022-12-27T02:07:53.993Z,72.70
2022-12-27T02:10:22.197Z,72.70
2022-12-27T02:12:49.913Z,71.90
2022-12-27T02:15:17.752Z,71.80
2022-12-27T02:17:45.479Z,71.90
2022-12-27T02:20:16.906Z,71.80
2022-12-27T02:23:36.108Z,71.90
2022-12-27T02:26:34.791Z,71.90
2022-12-27T02:29:18.817Z,71.90
2022-12-27T02:31:52.318Z,71.90
2022-12-27T02:34:25.016Z,71.90
2022-12-27T02:36:57.254Z,71.90
2022-12-27T02:39:27.296Z,71.90
2022-12-27T02:42:15.420Z,71.90
2022-12-27T02:45:14.631Z,71.90
2022-12-27T02:48:07.137Z,71.80
2022-12-27T02:51:03.260Z,71.80
2022-12-27T02:53:39.847Z,71.90
2022-12-27T02:56:37.631Z,71.80
2022-12-27T02:59:19.405Z,71.80
2022-12-27T03:02:15.419Z,71.80
2022-12-27T03:05:04.341Z,71.80
2022-12-27T03:07:37.183Z,71.80
2022-12-27T03:10:32.751Z,71.90
2022-12-27T03:13:29.597Z,71.90
2022-12-27T03:16:09.503Z,71.70
2022-12-27T03:18:50.304Z,71.70
2022-12-27T03:21:40.910Z,71.70
2022-12-27T03:24:35.859Z,71.70
2022-12-27T03:27:09.105Z,71.80
2022-12-27T03:29:54.226Z,71.80
2022-12-27T03:32:41.625Z,71.70
2022-12-27T03:35:15.927Z,71.70
2022-12-27T03:38:04.955Z,71.70
2022-12-27T03:41:06.850Z,71.70
2022-12-27T03:43:34.757Z,71.80
2022-12-27T03:46:30.635Z,71.70
2022-12-27T03:49:09.709Z,71.70
2022-12-27T03:51:40.614Z,71.70
2022-12-27T03:54:13.105Z,71.70
2022-12-27T03:56:42.441Z,71.70
2022-12-27T03:59:13.021Z,71.60
2022-12-27T04:01:42.307Z,71.60
2022-12-27T04:04:10.207Z,71.60
2022-12-27T04:06:39.217Z,71.60
2022-12-27T04:09:24.609Z,71.60
2022-12-27T04:12:10.054Z,71.60
2022-12-27T04:14:55.553Z,71.60
2022-12-27T04:17:41.116Z,71.60
2022-12-27T04:20:26.914Z,71.60
2022-12-27T04:23:13.765Z,71.60
2022-12-27T04:25:59.155Z,71.60
2022-12-27T04:28:44.807Z,71.60
2022-12-27T04:31:30.308Z,71.60
2022-12-27T04:34:16.149Z,71.60
2022-12-27T04:36:44.180Z,71.70
2022-12-27T04:39:13.855Z,71.70
2022-12-27T04:41:59.231Z,71.70
2022-12-27T04:44:45.586Z,71.70
2022-12-27T04:47:31.989Z,71.70
2022-12-27T04:50:17.547Z,71.70
2022-12-27T04:53:03.031Z,71.60
2022-12-27T04:55:32.091Z,71.60
2022-12-27T04:58:00.199Z,71.60
2022-12-27T05:00:48.553Z,71.60
2022-12-27T05:03:18.889Z,71.60
2022-12-27T05:05:49.578Z,71.60
2022-12-27T05:08:36.562Z,71.60
2022-12-27T05:11:23.849Z,71.60
2022-12-27T05:14:00.420Z,71.50
2022-12-27T05:16:28.829Z,71.50
2022-12-27T05:18:56.651Z,71.50
2022-12-27T05:21:24.800Z,71.40
2022-12-27T05:24:10.264Z,71.30
2022-12-27T05:26:39.863Z,71.30
2022-12-27T05:29:08.827Z,71.20
2022-12-27T05:31:36.672Z,71.30
2022-12-27T05:34:05.306Z,71.20
2022-12-27T05:36:33.066Z,71.10
2022-12-27T05:39:01.123Z,71.10
2022-12-27T05:41:28.818Z,71.10
2022-12-27T05:44:04.789Z,71.00
2022-12-27T05:46:34.872Z,71.00
2022-12-27T05:49:02.764Z,71.10
2022-12-27T05:51:30.454Z,71.40
2022-12-27T05:53:58.246Z,71.50
2022-12-27T05:56:25.967Z,71.60
2022-12-27T05:58:54.043Z,71.60
2022-12-27T06:01:23.161Z,71.60
2022-12-27T06:03:50.898Z,71.60
2022-12-27T06:06:18.605Z,71.50
2022-12-27T06:08:46.317Z,71.50
2022-12-27T06:11:16.335Z,71.40
2022-12-27T06:13:45.586Z,71.40
2022-12-27T06:16:14.045Z,71.30
2022-12-27T06:18:43.761Z,71.20
2022-12-27T06:21:13.372Z,71.20
2022-12-27T06:23:44.540Z,71.10
2022-12-27T06:26:15.645Z,71.10
2022-12-27T06:28:43.580Z,71.00
2022-12-27T06:31:11.973Z,71.00
2022-12-27T06:33:39.730Z,70.90
2022-12-27T06:36:10.956Z,70.90
2022-12-27T06:38:39.293Z,70.80
2022-12-27T06:41:09.199Z,70.60
2022-12-27T06:43:37.288Z,70.70
2022-12-27T06:46:10.314Z,70.60
2022-12-27T06:48:41.546Z,70.50
2022-12-27T06:51:12.678Z,70.50
2022-12-27T06:53:40.494Z,70.30
2022-12-27T06:56:10.678Z,70.50
2022-12-27T06:58:38.372Z,70.20
2022-12-27T07:01:08.732Z,70.40
2022-12-27T07:03:36.767Z,70.20
2022-12-27T07:06:06.916Z,70.20
2022-12-27T07:08:36.732Z,70.10
2022-12-27T07:11:07.249Z,70.10
2022-12-27T07:13:35.921Z,70.00
2022-12-27T07:16:05.134Z,70.00
2022-12-27T07:18:33.442Z,69.80
2022-12-27T07:21:05.262Z,70.00
2022-12-27T07:23:33.226Z,69.90
2022-12-27T07:26:04.631Z,69.70
2022-12-27T07:28:33.090Z,69.70
2022-12-27T07:31:00.811Z,69.60
2022-12-27T07:33:28.530Z,69.60
2022-12-27T07:36:00.027Z,69.60
2022-12-27T07:38:28.193Z,69.60
2022-12-27T07:40:58.833Z,69.50
2022-12-27T07:43:30.284Z,69.50
2022-12-27T07:46:04.276Z,69.40
2022-12-27T07:48:32.051Z,69.40
2022-12-27T07:50:59.896Z,69.40
2022-12-27T07:53:27.680Z,69.10
2022-12-27T07:55:55.445Z,69.30
2022-12-27T07:58:23.317Z,69.10
2022-12-27T08:00:53.475Z,69.10
2022-12-27T08:03:21.513Z,69.10
2022-12-27T08:05:52.538Z,69.90
2022-12-27T08:08:23.805Z,69.00
2022-12-27T08:10:51.564Z,68.90
2022-12-27T08:13:19.300Z,68.90
2022-12-27T08:15:46.988Z,69.00
2022-12-27T08:18:16.022Z,68.90
2022-12-27T08:20:43.729Z,68.90
2022-12-27T08:23:11.424Z,68.90
2022-12-27T08:25:43.264Z,68.90
2022-12-27T08:28:16.449Z,68.80
2022-12-27T08:30:46.841Z,68.80
2022-12-27T08:33:16.365Z,68.70
2022-12-27T08:35:54.553Z,68.70
2022-12-27T08:38:22.756Z,68.60
2022-12-27T08:40:50.549Z,68.60
2022-12-27T08:43:18.235Z,68.60
2022-12-27T08:45:45.977Z,68.60
2022-12-27T08:48:13.782Z,68.50
2022-12-27T08:50:42.982Z,68.50
2022-12-27T08:53:11.779Z,68.40
2022-12-27T08:55:39.501Z,68.40
2022-12-27T08:58:13.969Z,68.40
2022-12-27T09:00:43.764Z,68.40
2022-12-27T09:03:11.963Z,68.50
2022-12-27T09:05:41.855Z,68.50
2022-12-27T09:08:11.435Z,68.30
2022-12-27T09:10:39.555Z,68.40
2022-12-27T09:13:07.308Z,68.40
2022-12-27T09:15:35.099Z,68.40
2022-12-27T09:18:03.054Z,69.20
2022-12-27T09:20:30.891Z,68.30
2022-12-27T09:22:59.795Z,68.30
2022-12-27T09:25:28.893Z,68.30
2022-12-27T09:27:56.660Z,68.30
2022-12-27T09:30:24.448Z,68.20
2022-12-27T09:32:52.133Z,68.20
2022-12-27T09:35:19.937Z,68.20
2022-12-27T09:37:47.638Z,68.20
2022-12-27T09:40:16.571Z,68.20
2022-12-27T09:43:02.944Z,68.10
2022-12-27T09:45:42.728Z,68.10
2022-12-27T09:48:15.418Z,68.10
2022-12-27T09:50:49.977Z,68.10
2022-12-27T09:53:23.058Z,68.20
2022-12-27T09:55:53.498Z,68.20
2022-12-27T09:58:36.804Z,68.20
2022-12-27T10:01:18.256Z,68.20
2022-12-27T10:03:46.022Z,68.10
2022-12-27T10:06:29.049Z,68.10
2022-12-27T10:09:01.603Z,68.10
2022-12-27T10:11:39.954Z,68.10
2022-12-27T10:14:28.148Z,68.10
2022-12-27T10:17:06.764Z,68.10
2022-12-27T10:19:43.247Z,68.10
2022-12-27T10:22:21.744Z,68.00
2022-12-27T10:24:54.007Z,68.00
2022-12-27T10:27:26.580Z,68.00
2022-12-27T10:29:57.564Z,67.90
2022-12-27T10:32:25.810Z,67.90
2022-12-27T10:34:56.466Z,67.80
2022-12-27T10:37:24.615Z,67.90
2022-12-27T10:39:52.597Z,67.80
2022-12-27T10:42:35.031Z,67.80
2022-12-27T10:45:36.213Z,67.80
2022-12-27T10:48:17.225Z,67.80
2022-12-27T10:50:51.092Z,67.80
2022-12-27T10:53:37.920Z,67.80
2022-12-27T10:56:12.922Z,67.80
2022-12-27T10:58:43.513Z,67.80
2022-12-27T11:01:25.558Z,67.80
2022-12-27T11:04:10.898Z,67.80
2022-12-27T11:06:43.163Z,67.80
2022-12-27T11:09:36.048Z,67.80
2022-12-27T11:12:17.258Z,67.80
2022-12-27T11:14:56.467Z,67.70
2022-12-27T11:17:30.229Z,67.80
2022-12-27T11:20:02.740Z,67.80
2022-12-27T11:22:30.572Z,67.80
2022-12-27T11:25:01.116Z,67.80
2022-12-27T11:27:31.123Z,67.80
2022-12-27T11:30:00.467Z,67.70
2022-12-27T11:32:29.568Z,67.70
2022-12-27T11:34:58.073Z,67.70
2022-12-27T11:37:28.036Z,67.70
2022-12-27T11:40:11.288Z,67.70
2022-12-27T11:42:43.447Z,67.70
2022-12-27T11:45:15.692Z,67.70
2022-12-27T11:47:50.511Z,67.70
2022-12-27T11:50:34.451Z,67.70
2022-12-27T11:53:26.911Z,68.50
2022-12-27T11:56:10.732Z,67.70
2022-12-27T11:59:02.947Z,67.70
2022-12-27T12:02:00.705Z,67.60
2022-12-27T12:04:56.522Z,67.50
2022-12-27T12:07:42.188Z,67.50
2022-12-27T12:10:22.719Z,67.50
2022-12-27T12:13:14.508Z,67.50
2022-12-27T12:15:55.970Z,67.50
2022-12-27T12:18:40.229Z,67.50
2022-12-27T12:21:25.824Z,67.50
2022-12-27T12:24:44.490Z,67.50
2022-12-27T12:27:29.443Z,67.50
2022-12-27T12:30:13.411Z,67.50
2022-12-27T12:32:55.403Z,67.50
2022-12-27T12:35:41.197Z,67.50
2022-12-27T12:38:20.136Z,67.50
2022-12-27T12:41:12.647Z,67.50
2022-12-27T12:44:00.894Z,67.50
2022-12-27T12:46:35.281Z,67.50
2022-12-27T12:49:41.258Z,67.50
2022-12-27T12:52:36.160Z,67.40
2022-12-27T12:55:33.382Z,67.40
2022-12-27T12:58:13.487Z,67.40
2022-12-27T13:00:57.519Z,67.50
2022-12-27T13:03:58.230Z,67.40
2022-12-27T13:06:52.675Z,67.40
2022-12-27T13:09:35.341Z,67.40
2022-12-27T13:12:11.170Z,67.40
2022-12-27T13:14:56.056Z,67.40
2022-12-27T13:17:29.268Z,68.20
2022-12-27T13:20:18.828Z,67.30
2022-12-27T13:22:57.628Z,67.30
2022-12-27T13:25:32.312Z,67.30
2022-12-27T13:28:19.188Z,67.30
2022-12-27T13:30:56.376Z,67.30
2022-12-27T13:33:34.728Z,67.20
2022-12-27T13:36:17.316Z,67.20
2022-12-27T13:39:02.317Z,67.30
2022-12-27T13:41:44.481Z,67.30
2022-12-27T13:44:27.893Z,67.30
2022-12-27T13:47:26.961Z,67.30
2022-12-27T13:50:18.306Z,67.30
2022-12-27T13:53:00.169Z,67.30
2022-12-27T13:55:38.310Z,67.30
2022-12-27T13:58:31.627Z,67.30
2022-12-27T14:01:15.432Z,67.30
2022-12-27T14:03:57.429Z,67.30
2022-12-27T14:06:51.439Z,67.30
2022-12-27T14:09:45.483Z,67.30
2022-12-27T14:12:42.986Z,67.30
2022-12-27T14:15:16.219Z,67.30
2022-12-27T14:17:56.020Z,67.20
2022-12-27T14:20:36.995Z,67.20
2022-12-27T14:23:29.730Z,67.30
2022-12-27T14:26:36.393Z,67.30
2022-12-27T14:29:33.302Z,67.20
2022-12-27T14:32:40.867Z,67.30
2022-12-27T14:35:39.693Z,67.20
2022-12-27T14:38:47.778Z,67.20
2022-12-27T14:42:03.129Z,67.20
2022-12-27T14:45:02.756Z,67.20
2022-12-27T14:48:09.671Z,67.20
2022-12-27T14:54:28.030Z,67.10
2022-12-27T14:57:09.273Z,67.60
2022-12-27T14:59:45.607Z,67.10
2022-12-27T15:02:31.226Z,67.10
2022-12-27T15:05:20.144Z,67.10
2022-12-27T15:08:16.178Z,67.10
2022-12-27T15:10:56.985Z,67.10
2022-12-27T15:13:34.627Z,67.00
2022-12-27T15:16:15.196Z,67.00
2022-12-27T15:19:05.617Z,67.00
2022-12-27T15:21:46.571Z,67.00
2022-12-27T15:24:27.539Z,67.00
2022-12-27T15:27:01.384Z,67.00
2022-12-27T15:29:44.547Z,67.00
2022-12-27T15:32:25.792Z,67.00
2022-12-27T15:35:19.949Z,67.00
2022-12-27T15:38:03.671Z,67.00
2022-12-27T15:41:05.211Z,67.00
2022-12-27T15:43:55.800Z,66.80
2022-12-27T15:46:43.877Z,66.90
2022-12-27T15:49:28.313Z,66.80
2022-12-27T15:52:04.552Z,66.70
2022-12-27T15:54:53.333Z,66.70
2022-12-27T15:57:44.755Z,66.70
2022-12-27T16:00:18.032Z,66.70
2022-12-27T16:02:52.973Z,66.70
2022-12-27T16:05:48.882Z,66.70
2022-12-27T16:08:27.102Z,66.70
2022-12-27T16:10:56.105Z,66.70
2022-12-27T16:13:41.754Z,66.70
2022-12-27T16:16:27.218Z,66.50
2022-12-27T16:19:14.820Z,66.60
2022-12-27T16:21:45.843Z,66.50
2022-12-27T16:24:18.288Z,66.60
2022-12-27T16:26:56.063Z,66.60
2022-12-27T16:29:29.367Z,66.50
2022-12-27T16:32:14.717Z,66.40
2022-12-27T16:34:44.534Z,66.40
2022-12-27T16:37:24.114Z,66.40
2022-12-27T16:40:02.238Z,66.40
2022-12-27T16:42:52.600Z,66.40
2022-12-27T16:45:35.819Z,66.40
2022-12-27T16:48:11.809Z,66.40
2022-12-27T16:50:55.941Z,66.40
2022-12-27T16:53:41.774Z,66.40
2022-12-27T16:56:28.457Z,66.40
2022-12-27T16:58:57.263Z,66.40
2022-12-27T17:02:01.100Z,66.40
2022-12-27T17:04:58.221Z,66.40
2022-12-27T17:07:50.159Z,66.30
2022-12-27T17:10:34.659Z,66.40
2022-12-27T17:13:11.606Z,66.40
2022-12-27T17:15:49.264Z,66.50
2022-12-27T17:18:29.474Z,66.60
2022-12-27T17:21:04.555Z,66.70
2022-12-27T17:23:38.251Z,66.80
2022-12-27T17:26:30.836Z,66.90
2022-12-27T17:29:09.592Z,67.00
2022-12-27T17:31:48.532Z,67.00
2022-12-27T17:34:22.735Z,67.20
2022-12-27T17:36:59.376Z,67.30
2022-12-27T17:39:41.587Z,67.30
2022-12-27T17:42:31.101Z,67.40
2022-12-27T17:45:11.752Z,67.40
2022-12-27T17:48:01.143Z,67.60
2022-12-27T17:50:29.694Z,68.00
2022-12-27T17:53:36.019Z,68.20
2022-12-27T17:56:32.100Z,69.10
2022-12-27T17:59:04.898Z,69.50
2022-12-27T18:01:34.573Z,69.70
2022-12-27T18:04:04.768Z,69.80
2022-12-27T18:06:33.624Z,70.40
2022-12-27T18:09:03.295Z,70.70
2022-12-27T18:11:32.552Z,70.60
2022-12-27T18:14:00.667Z,70.50
2022-12-27T18:16:37.100Z,70.40
2022-12-27T18:19:05.284Z,70.40
2022-12-27T18:21:33.217Z,70.40
2022-12-27T18:24:02.294Z,70.30
2022-12-27T18:26:37.107Z,70.20
2022-12-27T18:29:05.710Z,70.30
2022-12-27T18:31:38.061Z,70.20
2022-12-27T18:34:09.077Z,70.20
2022-12-27T18:36:42.453Z,69.90
2022-12-27T18:39:24.495Z,69.70
2022-12-27T18:41:54.302Z,69.40
2022-12-27T18:44:27.361Z,69.00
2022-12-27T18:46:58.577Z,68.80
2022-12-27T18:49:30.171Z,68.30
2022-12-27T18:51:58.944Z,67.80
2022-12-27T18:54:35.760Z,67.40
2022-12-27T18:57:06.058Z,67.10
2022-12-27T18:59:35.864Z,66.90
2022-12-27T19:02:25.222Z,66.70
2022-12-27T19:05:15.933Z,66.60
2022-12-27T19:07:43.745Z,66.40
2022-12-27T19:10:18.808Z,66.30
2022-12-27T19:12:47.323Z,66.20
2022-12-27T19:15:18.000Z,66.20
2022-12-27T19:17:49.303Z,66.20
2022-12-27T19:20:22.899Z,66.10
2022-12-27T19:22:53.013Z,66.20
2022-12-27T19:25:24.955Z,66.20
2022-12-27T19:28:00.588Z,66.20
2022-12-27T19:30:33.954Z,66.20
2022-12-27T19:33:03.300Z,66.30
2022-12-27T19:35:31.063Z,66.30
2022-12-27T19:37:58.751Z,66.30
2022-12-27T19:40:27.805Z,66.30
2022-12-27T19:42:55.549Z,66.40
2022-12-27T19:45:23.239Z,66.40
2022-12-27T19:47:52.428Z,66.40
2022-12-27T19:50:20.225Z,66.40
2022-12-27T19:52:50.557Z,66.50
2022-12-27T19:55:25.326Z,66.50
2022-12-27T19:57:54.640Z,66.50
2022-12-27T20:00:24.142Z,66.50
2022-12-27T20:02:52.836Z,66.60
2022-12-27T20:06:14.860Z,66.60
2022-12-27T20:08:21.444Z,66.60
2022-12-27T20:10:49.173Z,66.70
2022-12-27T20:13:18.266Z,66.60
2022-12-27T20:15:46.095Z,66.70
2022-12-27T20:18:14.129Z,66.70
2022-12-27T20:20:42.037Z,66.70
2022-12-27T20:23:10.035Z,66.70
2022-12-27T20:25:39.873Z,66.80
2022-12-27T20:28:07.807Z,66.80
2022-12-27T20:30:39.529Z,66.80
2022-12-27T20:33:07.552Z,66.90
2022-12-27T20:35:35.632Z,66.90
2022-12-27T20:38:04.285Z,66.90
2022-12-27T20:40:32.341Z,66.90
2022-12-27T20:43:00.114Z,66.90
2022-12-27T20:45:27.950Z,66.90
2022-12-27T20:47:57.056Z,67.00
2022-12-27T20:50:25.126Z,67.00
2022-12-27T20:52:52.809Z,67.00
2022-12-27T20:55:20.684Z,67.00
2022-12-27T20:57:48.364Z,67.00
2022-12-27T21:00:16.925Z,67.00
2022-12-27T21:02:44.829Z,67.00
2022-12-27T21:05:14.180Z,66.90
2022-12-27T21:07:41.886Z,67.00
2022-12-27T21:10:10.701Z,66.90
2022-12-27T21:12:39.019Z,67.00
2022-12-27T21:15:08.734Z,67.00
2022-12-27T21:17:37.159Z,67.00
2022-12-27T21:20:06.183Z,67.00
2022-12-27T21:22:35.212Z,66.90
2022-12-27T21:25:03.085Z,66.90
2022-12-27T21:27:30.778Z,66.90
2022-12-27T21:29:58.463Z,67.00
2022-12-27T21:32:26.187Z,67.00
2022-12-27T21:34:53.894Z,67.00
2022-12-27T21:37:21.705Z,67.00
2022-12-27T21:39:50.764Z,67.10
2022-12-27T21:42:18.473Z,67.10
2022-12-27T21:44:46.174Z,67.60
2022-12-27T21:47:13.869Z,67.20
2022-12-27T21:49:41.565Z,67.20
2022-12-27T21:52:09.278Z,67.20
2022-12-27T21:54:36.993Z,67.20
2022-12-27T21:57:06.052Z,67.30
2022-12-27T21:59:33.872Z,67.30
2022-12-27T22:02:01.627Z,67.30
2022-12-27T22:04:29.530Z,67.30
2022-12-27T22:06:57.277Z,67.30
2022-12-27T22:09:25.011Z,67.40
2022-12-27T22:11:52.726Z,67.40
2022-12-27T22:14:25.448Z,67.40
2022-12-27T22:16:53.903Z,67.40
2022-12-27T22:19:21.628Z,67.40
2022-12-27T22:21:49.328Z,67.40
2022-12-27T22:24:19.596Z,67.50
2022-12-27T22:26:48.476Z,67.60
2022-12-27T22:29:16.332Z,67.60
2022-12-27T22:31:46.446Z,67.50
2022-12-27T22:34:14.290Z,67.50
2022-12-27T22:36:42.149Z,67.50
2022-12-27T22:39:09.861Z,67.50
2022-12-27T22:41:37.948Z,67.60
2022-12-27T22:44:07.301Z,67.60
2022-12-27T22:49:24.540Z,67.60
2022-12-27T22:51:52.461Z,67.60
2022-12-27T22:54:20.158Z,67.70
2022-12-27T22:56:47.868Z,67.60
2022-12-27T22:59:17.119Z,67.70
2022-12-27T23:01:46.151Z,67.70
2022-12-27T23:04:15.280Z,67.70
2022-12-27T23:06:45.242Z,67.70
2022-12-27T23:09:12.999Z,67.80
2022-12-27T23:11:41.921Z,67.80
2022-12-27T23:14:12.933Z,67.80
2022-12-27T23:16:43.147Z,67.80
2022-12-27T23:19:12.216Z,67.80
2022-12-27T23:21:40.140Z,67.90
2022-12-27T23:24:10.321Z,67.80
2022-12-27T23:26:38.337Z,67.90
2022-12-27T23:29:06.747Z,67.80
2022-12-27T23:31:35.287Z,67.90
2022-12-27T23:34:27.629Z,67.90
2022-12-27T23:36:56.722Z,67.90
2022-12-27T23:39:25.855Z,67.90
2022-12-27T23:41:53.606Z,68.00
2022-12-27T23:44:26.476Z,67.90
2022-12-27T23:47:03.079Z,68.00
2022-12-27T23:49:30.848Z,68.00
2022-12-27T23:51:58.615Z,68.00
2022-12-27T23:54:27.630Z,68.00
2022-12-27T23:56:55.559Z,68.00
2022-12-27T23:59:23.242Z,68.00
